createdAt,value
2019-01-05T00:00:14.835Z,78.38
2019-01-05T00:03:11.230Z,77.95
2019-01-05T00:05:53.554Z,78.11
2019-01-05T00:08:50.848Z,78.31
2019-01-05T00:11:45.232Z,78.54
2019-01-05T00:14:48.329Z,77.17
2019-01-05T00:17:41.230Z,78.01
2019-01-05T00:20:35.334Z,78.88
2019-01-05T00:23:19.856Z,78.74
2019-01-05T00:26:06.831Z,78.69
2019-01-05T00:29:04.334Z,78.03
2019-01-05T00:32:03.807Z,76.82
2019-01-05T00:35:06.252Z,76.71
2019-01-05T00:37:58.728Z,74.60
2019-01-05T00:40:45.669Z,76.00
2019-01-05T00:43:39.781Z,77.43
2019-01-05T00:46:40.812Z,78.43
2019-01-05T00:49:44.949Z,78.31
2019-01-05T00:52:42.740Z,77.66
2019-01-05T00:55:30.146Z,77.04
2019-01-05T00:58:24.695Z,77.24
2019-01-05T01:01:13.168Z,77.52
2019-01-05T01:04:04.327Z,76.66
2019-01-05T01:07:01.137Z,76.45
2019-01-05T01:12:55.470Z,77.58
2019-01-05T01:15:49.864Z,78.67
2019-01-05T01:18:42.127Z,77.04
2019-01-05T01:21:37.478Z,77.61
2019-01-05T01:24:37.169Z,78.46
2019-01-05T01:27:28.182Z,77.48
2019-01-05T01:30:16.001Z,76.51
2019-01-05T01:33:02.583Z,76.88
2019-01-05T01:35:49.864Z,75.23
2019-01-05T01:38:47.941Z,75.98
2019-01-05T01:42:04.297Z,75.47
2019-01-05T01:45:00.463Z,75.08
2019-01-05T01:47:51.832Z,76.33
2019-01-05T01:50:47.333Z,78.23
2019-01-05T01:53:53.772Z,76.39
2019-01-05T01:56:43.089Z,77.69
2019-01-05T01:59:49.993Z,78.48
2019-01-05T02:02:38.749Z,77.46
2019-01-05T02:05:29.679Z,78.85
2019-01-05T02:08:20.073Z,78.29
2019-01-05T02:11:09.246Z,79.00
2019-01-05T02:14:12.602Z,78.68
2019-01-05T02:17:26.854Z,79.08
2019-01-05T02:20:22.691Z,79.03
2019-01-05T02:23:45.641Z,78.97
2019-01-05T02:27:32.829Z,79.15
2019-01-05T02:30:57.973Z,79.86
2019-01-05T02:34:16.565Z,79.49
2019-01-05T02:37:25.732Z,79.63
2019-01-05T02:40:36.488Z,79.91
2019-01-05T02:43:49.059Z,80.34
2019-01-05T02:47:16.590Z,81.20
2019-01-05T02:50:50.959Z,80.56
2019-01-05T02:54:45.116Z,81.40
2019-01-05T02:58:28.951Z,82.45
2019-01-05T03:02:10.692Z,82.56
2019-01-05T03:05:40.800Z,82.76
2019-01-05T03:09:06.371Z,82.95
2019-01-05T03:12:38.846Z,82.75
2019-01-05T03:16:20.980Z,83.01
2019-01-05T03:20:05.476Z,82.66
2019-01-05T03:23:22.073Z,82.93
2019-01-05T03:26:58.132Z,82.99
2019-01-05T03:30:27.197Z,83.69
2019-01-05T03:33:45.135Z,83.33
2019-01-05T03:37:22.061Z,83.80
2019-01-05T03:40:29.561Z,82.41
2019-01-05T03:44:06.253Z,83.66
2019-01-05T03:47:27.561Z,84.56
2019-01-05T03:51:10.917Z,83.92
2019-01-05T03:54:45.803Z,84.01
2019-01-05T03:58:48.182Z,84.21
2019-01-05T04:02:10.786Z,83.02
2019-01-05T04:05:35.790Z,82.30
2019-01-05T04:09:05.016Z,82.25
2019-01-05T04:12:35.541Z,82.50
2019-01-05T04:15:52.830Z,82.62
2019-01-05T04:19:20.229Z,82.40
2019-01-05T04:23:09.486Z,82.33
2019-01-05T04:26:45.345Z,82.48
2019-01-05T04:30:19.836Z,83.02
2019-01-05T04:33:52.994Z,81.98
2019-01-05T04:37:10.368Z,81.35
2019-01-05T04:40:53.146Z,81.64
2019-01-05T04:44:28.834Z,81.29
2019-01-05T04:47:48.795Z,82.06
2019-01-05T04:51:09.617Z,82.72
2019-01-05T04:54:33.788Z,82.85
2019-01-05T04:58:18.705Z,82.89
2019-01-05T05:01:52.686Z,82.31
2019-01-05T05:05:29.279Z,82.52
2019-01-05T05:09:18.664Z,82.80
2019-01-05T05:12:56.740Z,82.01
2019-01-05T05:16:58.363Z,84.48
2019-01-05T05:20:40.971Z,84.81
2019-01-05T05:24:15.795Z,83.88
2019-01-05T05:27:46.616Z,83.69
2019-01-05T05:31:28.535Z,85.29
2019-01-05T05:34:51.330Z,85.09
2019-01-05T05:38:21.596Z,84.60
2019-01-05T05:42:07.440Z,85.36
2019-01-05T05:45:39.965Z,84.50
2019-01-05T05:49:32.395Z,84.72
2019-01-05T05:53:05.560Z,84.39
2019-01-05T05:56:33.932Z,84.61
2019-01-05T06:00:05.244Z,84.52
2019-01-05T06:03:38.595Z,84.60
2019-01-05T06:07:13.777Z,83.70
2019-01-05T06:11:24.658Z,84.82
2019-01-05T06:15:02.811Z,85.29
2019-01-05T06:18:34.971Z,85.63
2019-01-05T06:22:02.690Z,85.97
2019-01-05T06:26:11.863Z,85.41
2019-01-05T06:29:42.951Z,85.82
2019-01-05T06:33:13.602Z,85.38
2019-01-05T06:36:38.746Z,84.59
2019-01-05T06:40:03.216Z,83.77
2019-01-05T06:43:58.889Z,83.21
2019-01-05T06:47:12.565Z,84.95
2019-01-05T06:50:36.912Z,84.80
2019-01-05T06:54:10.891Z,87.79
2019-01-05T06:57:43.474Z,85.72
2019-01-05T07:01:16.269Z,84.74
2019-01-05T07:04:47.855Z,84.51
2019-01-05T07:08:27.914Z,84.25
2019-01-05T07:11:39.400Z,84.23
2019-01-05T07:15:10.418Z,84.44
2019-01-05T07:18:48.834Z,84.25
2019-01-05T07:22:42.897Z,83.84
2019-01-05T07:26:14.083Z,83.36
2019-01-05T07:29:45.228Z,85.71
2019-01-05T07:33:22.651Z,84.82
2019-01-05T07:36:45.295Z,85.87
2019-01-05T07:40:09.647Z,85.36
2019-01-05T07:43:32.584Z,86.04
2019-01-05T07:47:10.261Z,86.39
2019-01-05T07:50:43.848Z,85.49
2019-01-05T07:54:18.998Z,85.93
2019-01-05T07:57:51.574Z,85.58
2019-01-05T08:01:11.982Z,84.36
2019-01-05T08:04:33.714Z,84.87
2019-01-05T08:08:13.994Z,84.90
2019-01-05T08:11:40.518Z,85.61
2019-01-05T08:15:29.495Z,85.17
2019-01-05T08:19:03.392Z,84.85
2019-01-05T08:22:48.196Z,84.99
2019-01-05T08:26:31.201Z,86.41
2019-01-05T08:30:10.142Z,84.87
2019-01-05T08:33:35.875Z,84.78
2019-01-05T08:37:17.298Z,84.07
2019-01-05T08:40:44.716Z,85.30
2019-01-05T08:44:24.675Z,84.72
2019-01-05T08:47:47.114Z,85.11
2019-01-05T08:51:10.858Z,85.10
2019-01-05T08:54:44.780Z,82.26
2019-01-05T08:58:24.437Z,84.59
2019-01-05T09:02:03.572Z,83.19
2019-01-05T09:05:32.969Z,81.95
2019-01-05T09:09:16.771Z,82.54
2019-01-05T09:12:58.213Z,84.15
2019-01-05T09:16:30.990Z,83.23
2019-01-05T09:19:42.323Z,84.28
2019-01-05T09:23:33.113Z,84.11
2019-01-05T09:27:28.489Z,84.22
2019-01-05T09:30:47.686Z,84.96
2019-01-05T09:34:04.995Z,84.29
2019-01-05T09:37:33.404Z,85.18
2019-01-05T09:40:59.703Z,86.28
2019-01-05T09:44:23.454Z,86.88
2019-01-05T09:48:15.848Z,86.72
2019-01-05T09:51:54.215Z,85.21
2019-01-05T09:55:18.134Z,85.31
2019-01-05T09:58:51.962Z,84.90
2019-01-05T10:02:25.917Z,85.13
2019-01-05T10:05:43.776Z,85.46
2019-01-05T10:09:22.850Z,85.60
2019-01-05T10:13:13.046Z,86.69
2019-01-05T10:16:58.145Z,87.22
2019-01-05T10:20:42.368Z,87.78
2019-01-05T10:24:06.571Z,88.13
2019-01-05T10:27:55.850Z,88.28
2019-01-05T10:31:17.889Z,88.87
2019-01-05T10:34:52.794Z,88.33
2019-01-05T10:38:15.231Z,88.35
2019-01-05T10:41:59.788Z,87.56
2019-01-05T10:45:40.411Z,87.46
2019-01-05T10:49:16.549Z,88.17
2019-01-05T10:52:48.398Z,87.29
2019-01-05T10:56:24.787Z,85.98
2019-01-05T10:59:54.883Z,86.17
2019-01-05T11:03:17.756Z,86.68
2019-01-05T11:06:37.981Z,86.01
2019-01-05T11:09:48.105Z,85.61
2019-01-05T11:13:20.403Z,82.97
2019-01-05T11:16:44.264Z,84.51
2019-01-05T11:20:15.091Z,83.84
2019-01-05T11:23:56.242Z,83.29
2019-01-05T11:27:06.576Z,83.72
2019-01-05T11:30:48.175Z,84.59
2019-01-05T11:34:43.502Z,85.36
2019-01-05T11:37:58.024Z,86.24
2019-01-05T11:41:36.193Z,85.85
2019-01-05T11:45:03.118Z,85.66
2019-01-05T11:48:30.847Z,85.63
2019-01-05T11:52:10.664Z,84.46
2019-01-05T11:55:49.494Z,85.62
2019-01-05T11:59:29.369Z,86.34
2019-01-05T12:02:58.105Z,85.97
2019-01-05T12:06:35.116Z,85.00
2019-01-05T12:09:46.315Z,85.33
2019-01-05T12:13:14.388Z,85.56
2019-01-05T12:16:40.874Z,83.64
2019-01-05T12:19:54.424Z,84.06
2019-01-05T12:23:45.639Z,84.44
2019-01-05T12:27:15.014Z,83.79
2019-01-05T12:30:52.984Z,85.51
2019-01-05T12:34:34.841Z,85.36
2019-01-05T12:38:03.482Z,85.69
2019-01-05T12:41:30.587Z,84.71
2019-01-05T12:44:53.240Z,85.46
2019-01-05T12:48:17.136Z,85.95
2019-01-05T12:51:47.752Z,86.06
2019-01-05T12:55:04.885Z,83.79
2019-01-05T12:58:38.502Z,84.05
2019-01-05T13:01:57.652Z,84.50
2019-01-05T13:05:22.535Z,85.06
2019-01-05T13:08:45.838Z,83.89
2019-01-05T13:12:22.480Z,84.92
2019-01-05T13:16:03.813Z,85.23
2019-01-05T13:19:34.575Z,85.10
2019-01-05T13:22:54.054Z,85.48
2019-01-05T13:26:19.106Z,86.30
2019-01-05T13:29:41.924Z,86.06
2019-01-05T13:33:27.974Z,86.94
2019-01-05T13:36:57.715Z,85.66
2019-01-05T13:40:37.612Z,84.39
2019-01-05T13:44:11.855Z,85.35
2019-01-05T13:47:51.732Z,83.04
2019-01-05T13:51:28.645Z,84.85
2019-01-05T13:54:26.958Z,84.35
2019-01-05T13:57:17.925Z,84.72
2019-01-05T14:00:13.871Z,84.83
2019-01-05T14:03:01.630Z,84.55
2019-01-05T14:06:00.192Z,85.04
2019-01-05T14:08:49.010Z,84.88
2019-01-05T14:11:37.037Z,84.59
2019-01-05T14:14:25.338Z,84.51
2019-01-05T14:17:13.133Z,84.09
2019-01-05T14:20:11.634Z,84.26
2019-01-05T14:22:58.595Z,82.96
2019-01-05T14:25:51.077Z,84.50
2019-01-05T14:28:33.337Z,84.88
2019-01-05T14:31:20.381Z,83.66
2019-01-05T14:34:11.835Z,84.05
2019-01-05T14:37:09.417Z,82.68
2019-01-05T14:40:05.957Z,82.93
2019-01-05T14:42:53.012Z,83.08
2019-01-05T14:45:49.997Z,82.82
2019-01-05T14:48:48.061Z,84.03
2019-01-05T14:51:45.147Z,84.13
2019-01-05T14:54:46.373Z,84.62
2019-01-05T14:57:40.351Z,84.10
2019-01-05T15:00:39.806Z,83.28
2019-01-05T15:03:31.321Z,83.95
2019-01-05T15:06:18.236Z,81.24
2019-01-05T15:09:09.288Z,83.36
2019-01-05T15:12:09.772Z,83.28
2019-01-05T15:15:02.298Z,83.54
2019-01-05T15:17:49.180Z,84.71
2019-01-05T15:20:35.980Z,85.11
2019-01-05T15:23:24.862Z,84.02
2019-01-05T15:26:17.007Z,82.68
2019-01-05T15:29:04.032Z,84.21
2019-01-05T15:31:53.117Z,84.03
2019-01-05T15:37:49.688Z,83.94
2019-01-05T15:40:55.999Z,82.94
2019-01-05T15:43:44.052Z,83.47
2019-01-05T15:46:30.760Z,81.88
2019-01-05T15:49:18.909Z,82.90
2019-01-05T15:52:24.007Z,82.83
2019-01-05T15:55:25.646Z,83.96
2019-01-05T15:58:26.256Z,84.34
2019-01-05T16:01:23.978Z,85.42
2019-01-05T16:04:27.087Z,83.66
2019-01-05T16:07:11.014Z,85.93
2019-01-05T16:10:06.484Z,84.74
2019-01-05T16:12:53.574Z,84.73
2019-01-05T16:15:49.118Z,86.11
2019-01-05T16:18:38.306Z,85.89
2019-01-05T16:21:28.908Z,85.94
2019-01-05T16:24:19.815Z,85.35
2019-01-05T16:27:14.148Z,84.81
2019-01-05T16:30:00.787Z,87.21
2019-01-05T16:32:52.274Z,85.76
2019-01-05T16:35:42.281Z,86.45
2019-01-05T16:38:30.947Z,84.85
2019-01-05T16:41:34.044Z,86.95
2019-01-05T16:44:24.067Z,87.48
2019-01-05T16:47:16.601Z,85.89
2019-01-05T16:50:03.498Z,87.11
2019-01-05T16:52:51.702Z,86.01
2019-01-05T16:55:55.065Z,86.55
2019-01-05T16:58:42.026Z,86.68
2019-01-05T17:01:39.353Z,86.49
2019-01-05T17:04:26.481Z,86.69
2019-01-05T17:07:17.224Z,86.23
2019-01-05T17:10:14.288Z,87.19
2019-01-05T17:13:08.348Z,87.01
2019-01-05T17:15:55.447Z,87.06
2019-01-05T17:18:49.778Z,88.05
2019-01-05T17:21:57.608Z,86.49
2019-01-05T17:24:44.683Z,87.68
2019-01-05T17:27:31.294Z,88.20
2019-01-05T17:30:20.958Z,86.65
2019-01-05T17:33:11.787Z,86.41
2019-01-05T17:36:03.156Z,86.49
2019-01-05T17:38:46.673Z,86.20
2019-01-05T17:41:43.089Z,87.15
2019-01-05T17:44:30.060Z,83.71
2019-01-05T17:47:13.033Z,85.58
2019-01-05T17:50:00.749Z,84.18
2019-01-05T17:53:03.224Z,85.75
2019-01-05T17:55:51.078Z,84.96
2019-01-05T17:58:40.711Z,86.69
2019-01-05T18:01:31.906Z,86.27
2019-01-05T18:04:18.662Z,87.46
2019-01-05T18:07:04.540Z,87.50
2019-01-05T18:09:50.625Z,86.50
2019-01-05T18:12:59.035Z,86.01
2019-01-05T18:15:46.785Z,85.66
2019-01-05T18:18:47.118Z,85.74
2019-01-05T18:21:35.228Z,86.70
2019-01-05T18:24:22.161Z,86.47
2019-01-05T18:30:12.265Z,85.73
2019-01-05T18:32:59.365Z,85.46
2019-01-05T18:35:47.688Z,88.43
2019-01-05T18:38:52.685Z,86.84
2019-01-05T18:41:49.654Z,86.30
2019-01-05T18:44:46.965Z,86.04
2019-01-05T18:47:34.469Z,85.84
2019-01-05T18:50:21.597Z,86.02
2019-01-05T18:53:18.629Z,87.42
2019-01-05T18:56:20.358Z,88.78
2019-01-05T18:59:22.140Z,86.61
2019-01-05T19:02:25.314Z,86.03
2019-01-05T19:05:13.295Z,87.15
2019-01-05T19:08:18.880Z,88.32
2019-01-05T19:11:11.391Z,87.78
2019-01-05T19:14:08.538Z,86.25
2019-01-05T19:16:56.967Z,87.16
2019-01-05T19:19:54.316Z,87.57
2019-01-05T19:22:57.821Z,86.40
2019-01-05T19:25:53.720Z,87.87
2019-01-05T19:28:40.804Z,85.48
2019-01-05T19:31:41.212Z,85.00
2019-01-05T19:37:37.544Z,84.67
2019-01-05T19:40:25.324Z,86.88
2019-01-05T19:43:29.518Z,86.43
2019-01-05T19:46:30.587Z,87.38
2019-01-05T19:49:23.034Z,88.47
2019-01-05T19:52:14.009Z,87.53
2019-01-05T19:55:00.835Z,87.04
2019-01-05T19:57:47.698Z,87.86
2019-01-05T20:00:49.894Z,88.17
2019-01-05T20:03:39.892Z,87.13
2019-01-05T20:06:31.051Z,87.22
2019-01-05T20:09:15.689Z,87.98
2019-01-05T20:12:02.581Z,88.54
2019-01-05T20:14:59.129Z,88.77
2019-01-05T20:17:47.515Z,88.66
2019-01-05T20:20:38.108Z,86.30
2019-01-05T20:23:29.906Z,85.73
2019-01-05T20:26:13.682Z,87.37
2019-01-05T20:29:11.105Z,87.25
2019-01-05T20:31:58.114Z,87.20
2019-01-05T20:34:45.100Z,88.09
2019-01-05T20:37:33.260Z,86.71
2019-01-05T20:40:26.913Z,86.43
2019-01-05T20:43:27.552Z,86.54
2019-01-05T20:46:27.783Z,85.75
2019-01-05T20:49:16.064Z,86.39
2019-01-05T20:52:03.064Z,85.60
2019-01-05T20:54:53.776Z,86.52
2019-01-05T20:57:57.151Z,85.02
2019-01-05T21:01:04.914Z,85.66
2019-01-05T21:04:08.505Z,84.94
2019-01-05T21:07:02.635Z,85.29
2019-01-05T21:09:42.567Z,85.23
2019-01-05T21:12:29.602Z,84.15
2019-01-05T21:15:20.610Z,85.18
2019-01-05T21:18:26.302Z,84.55
2019-01-05T21:21:14.391Z,86.29
2019-01-05T21:24:06.910Z,86.15
2019-01-05T21:27:05.967Z,86.85
2019-01-05T21:30:03.122Z,84.65
2019-01-05T21:32:52.024Z,86.57
2019-01-05T21:35:53.622Z,86.08
2019-01-05T21:38:42.755Z,85.90
2019-01-05T21:41:30.827Z,86.20
2019-01-05T21:44:21.949Z,84.62
2019-01-05T21:47:19.294Z,86.54
2019-01-05T21:50:02.340Z,86.06
2019-01-05T21:53:05.705Z,86.37
2019-01-05T21:55:54.936Z,84.53
2019-01-05T21:58:37.810Z,84.76
2019-01-05T22:01:31.979Z,85.46
2019-01-05T22:04:23.113Z,86.20
2019-01-05T22:07:10.879Z,85.72
2019-01-05T22:09:58.894Z,84.80
2019-01-05T22:12:58.576Z,84.89
2019-01-05T22:15:52.041Z,85.50
2019-01-05T22:18:39.043Z,86.26
2019-01-05T22:21:34.289Z,85.69
2019-01-05T22:24:36.645Z,86.09
2019-01-05T22:27:36.789Z,87.35
2019-01-05T22:30:30.340Z,87.44
2019-01-05T22:33:23.888Z,86.13
2019-01-05T22:36:21.197Z,86.40
2019-01-05T22:39:24.537Z,86.85
2019-01-05T22:42:08.641Z,84.59
2019-01-05T22:45:06.175Z,85.04
2019-01-05T22:48:11.999Z,86.92
2019-01-05T22:50:57.526Z,87.38
2019-01-05T22:53:51.421Z,87.63
2019-01-05T22:56:50.221Z,87.50
2019-01-05T22:59:47.816Z,88.03
2019-01-05T23:02:47.864Z,86.98
2019-01-05T23:05:37.859Z,86.30
2019-01-05T23:08:24.471Z,86.31
2019-01-05T23:11:11.094Z,86.67
2019-01-05T23:14:05.100Z,87.46
2019-01-05T23:16:59.202Z,88.02
2019-01-05T23:19:43.329Z,86.43
2019-01-05T23:22:37.332Z,84.84
2019-01-05T23:25:26.160Z,86.38
2019-01-05T23:28:17.064Z,86.94
2019-01-05T23:31:08.251Z,86.39
2019-01-05T23:33:58.335Z,86.57
2019-01-05T23:36:49.168Z,87.39
2019-01-05T23:39:42.512Z,86.74
2019-01-05T23:45:42.126Z,86.21
2019-01-05T23:48:30.227Z,87.16
2019-01-05T23:51:14.512Z,87.07
2019-01-05T23:54:01.561Z,86.69
2019-01-05T23:56:49.354Z,86.99
2019-01-05T23:59:49.619Z,85.46
